createdAt,value
2018-02-23T00:01:17.950Z,18.27
2018-02-23T00:03:46.305Z,17.87
2018-02-23T00:06:14.147Z,8.90
2018-02-23T00:08:41.691Z,18.53
2018-02-23T00:11:09.241Z,4.83
2018-02-23T00:13:37.597Z,16.77
2018-02-23T00:16:05.150Z,14.93
2018-02-23T00:18:32.734Z,16.83
2018-02-23T00:21:00.289Z,16.80
2018-02-23T00:23:28.843Z,13.80
2018-02-23T00:25:56.414Z,12.40
2018-02-23T00:28:25.676Z,19.27
2018-02-23T00:30:53.221Z,12.00
2018-02-23T00:33:20.780Z,18.17
2018-02-23T00:35:48.352Z,11.10
2018-02-23T00:38:15.912Z,16.80
2018-02-23T00:40:43.485Z,17.97
2018-02-23T00:43:11.041Z,17.20
2018-02-23T00:45:38.629Z,18.60
2018-02-23T00:48:06.176Z,20.03
2018-02-23T00:50:33.873Z,20.67
2018-02-23T00:53:01.413Z,17.37
2018-02-23T00:55:28.976Z,13.07
2018-02-23T00:57:56.714Z,23.27
2018-02-23T01:00:24.285Z,20.90
2018-02-23T01:02:53.413Z,22.53
2018-02-23T01:05:21.132Z,21.70
2018-02-23T01:07:49.188Z,18.37
2018-02-23T01:10:16.742Z,18.30
2018-02-23T01:12:44.293Z,24.00
2018-02-23T01:15:11.874Z,21.70
2018-02-23T01:17:39.418Z,18.03
2018-02-23T01:20:07.002Z,20.10
2018-02-23T01:22:34.548Z,14.07
2018-02-23T01:25:02.125Z,17.53
2018-02-23T01:27:29.705Z,17.57
2018-02-23T01:29:57.275Z,21.37
2018-02-23T01:32:24.832Z,16.43
2018-02-23T01:34:53.197Z,19.90
2018-02-23T01:37:20.970Z,21.23
2018-02-23T01:39:49.285Z,22.30
2018-02-23T01:42:16.867Z,22.33
2018-02-23T01:44:44.414Z,24.10
2018-02-23T01:47:11.991Z,20.53
2018-02-23T01:49:39.545Z,20.60
2018-02-23T01:52:07.124Z,23.60
2018-02-23T01:54:34.670Z,22.23
2018-02-23T01:57:02.254Z,20.90
2018-02-23T01:59:29.815Z,23.87
2018-02-23T02:01:57.427Z,22.90
2018-02-23T02:04:25.033Z,22.87
2018-02-23T02:06:52.593Z,21.77
2018-02-23T02:09:20.266Z,21.37
2018-02-23T02:11:47.831Z,21.90
2018-02-23T02:14:16.197Z,22.77
2018-02-23T02:16:43.750Z,25.10
2018-02-23T02:19:12.140Z,25.70
2018-02-23T02:21:39.681Z,23.43
2018-02-23T02:24:08.040Z,21.40
2018-02-23T02:26:35.855Z,24.20
2018-02-23T02:29:04.382Z,20.23
2018-02-23T02:31:31.933Z,26.27
2018-02-23T02:33:59.488Z,23.33
2018-02-23T02:36:27.057Z,24.00
2018-02-23T02:38:54.623Z,22.47
2018-02-23T02:41:22.204Z,23.10
2018-02-23T02:43:49.745Z,20.50
2018-02-23T02:46:17.458Z,24.13
2018-02-23T02:48:45.000Z,24.80
2018-02-23T02:51:13.354Z,24.23
2018-02-23T02:53:40.902Z,23.33
2018-02-23T02:56:08.447Z,22.30
2018-02-23T02:58:36.170Z,21.70
2018-02-23T03:01:04.493Z,23.67
2018-02-23T03:03:32.076Z,24.90
2018-02-23T03:05:59.639Z,23.67
2018-02-23T03:08:27.218Z,21.33
2018-02-23T03:10:55.525Z,20.00
2018-02-23T03:13:23.109Z,25.03
2018-02-23T03:15:50.669Z,25.07
2018-02-23T03:18:18.211Z,25.30
2018-02-23T03:20:45.782Z,25.07
2018-02-23T03:23:13.328Z,25.60
2018-02-23T03:25:41.069Z,20.13
2018-02-23T03:28:09.372Z,24.17
2018-02-23T03:30:36.982Z,23.00
2018-02-23T03:33:04.564Z,15.53
2018-02-23T03:35:32.101Z,22.60
2018-02-23T03:37:59.687Z,23.53
2018-02-23T03:40:27.230Z,17.23
2018-02-23T03:42:55.593Z,20.70
2018-02-23T03:45:23.124Z,20.20
2018-02-23T03:47:50.697Z,17.40
2018-02-23T03:50:18.242Z,21.27
2018-02-23T03:52:45.842Z,25.20
2018-02-23T03:55:14.152Z,24.13
2018-02-23T03:57:41.946Z,20.60
2018-02-23T04:00:09.518Z,23.80
2018-02-23T04:02:37.058Z,23.27
2018-02-23T04:05:04.636Z,21.60
2018-02-23T04:07:32.173Z,20.70
2018-02-23T04:09:59.737Z,22.57
2018-02-23T04:12:27.297Z,22.50
2018-02-23T04:14:54.879Z,21.50
2018-02-23T04:17:22.603Z,23.97
2018-02-23T04:19:50.292Z,22.57
2018-02-23T04:22:17.842Z,24.27
2018-02-23T04:24:45.386Z,22.17
2018-02-23T04:27:13.125Z,22.53
2018-02-23T04:29:40.836Z,27.00
2018-02-23T04:32:08.413Z,24.30
2018-02-23T04:34:37.472Z,27.40
2018-02-23T04:37:05.045Z,23.53
2018-02-23T04:39:32.593Z,25.10
2018-02-23T04:42:00.568Z,23.63
2018-02-23T04:44:28.122Z,25.53
2018-02-23T04:46:55.669Z,25.63
2018-02-23T04:49:23.408Z,22.83
2018-02-23T04:51:51.727Z,25.97
2018-02-23T04:54:19.304Z,25.17
2018-02-23T04:56:46.849Z,24.80
2018-02-23T04:59:14.413Z,24.97
2018-02-23T05:01:41.995Z,21.70
2018-02-23T05:04:09.537Z,25.13
2018-02-23T05:06:37.106Z,23.30
2018-02-23T05:09:04.646Z,24.33
2018-02-23T05:11:32.255Z,25.17
2018-02-23T05:14:00.006Z,25.20
2018-02-23T05:16:28.368Z,24.13
2018-02-23T05:18:55.923Z,25.50
2018-02-23T05:21:23.493Z,26.10
2018-02-23T05:23:52.131Z,26.07
2018-02-23T05:26:19.756Z,28.03
2018-02-23T05:28:48.104Z,25.70
2018-02-23T05:31:15.660Z,24.40
2018-02-23T05:33:43.233Z,26.33
2018-02-23T05:36:10.781Z,25.33
2018-02-23T05:38:38.385Z,24.80
2018-02-23T05:41:05.917Z,22.50
2018-02-23T05:43:34.276Z,23.80
2018-02-23T05:46:01.873Z,24.47
2018-02-23T05:48:30.245Z,25.03
2018-02-23T05:50:57.845Z,22.90
2018-02-23T05:53:25.377Z,22.83
2018-02-23T05:55:52.972Z,23.97
2018-02-23T05:58:20.542Z,23.10
2018-02-23T06:00:48.093Z,23.90
2018-02-23T06:03:15.914Z,23.17
2018-02-23T06:05:44.219Z,24.50
2018-02-23T06:08:11.805Z,22.27
2018-02-23T06:10:39.517Z,24.57
2018-02-23T06:13:08.078Z,25.83
2018-02-23T06:15:41.359Z,22.17
2018-02-23T06:18:08.926Z,24.37
2018-02-23T06:20:36.479Z,25.43
2018-02-23T06:23:04.542Z,28.90
2018-02-23T06:25:32.084Z,26.47
2018-02-23T06:27:59.660Z,25.53
2018-02-23T06:30:27.249Z,23.73
2018-02-23T06:32:55.296Z,24.10
2018-02-23T06:35:22.872Z,24.17
2018-02-23T06:37:51.184Z,25.80
2018-02-23T06:40:18.776Z,22.83
2018-02-23T06:42:46.317Z,27.00
2018-02-23T06:45:13.928Z,21.63
2018-02-23T06:47:42.238Z,23.30
2018-02-23T06:50:09.786Z,22.30
2018-02-23T06:52:37.366Z,21.97
2018-02-23T06:55:04.922Z,24.70
2018-02-23T06:57:32.689Z,24.17
2018-02-23T07:00:00.290Z,21.60
2018-02-23T07:02:27.885Z,17.43
2018-02-23T07:04:55.438Z,24.70
2018-02-23T07:07:23.995Z,25.00
2018-02-23T07:09:51.793Z,23.13
2018-02-23T07:12:20.111Z,21.53
2018-02-23T07:14:47.698Z,17.17
2018-02-23T07:17:15.405Z,18.60
2018-02-23T07:19:43.061Z,22.63
2018-02-23T07:22:10.605Z,25.17
2018-02-23T07:24:38.192Z,20.20
2018-02-23T07:27:08.618Z,15.50
2018-02-23T07:29:36.198Z,25.10
2018-02-23T07:32:04.030Z,15.20
2018-02-23T07:34:32.425Z,21.17
2018-02-23T07:36:59.982Z,20.73
2018-02-23T07:39:27.579Z,23.40
2018-02-23T07:41:55.129Z,23.53
2018-02-23T07:44:22.681Z,24.00
2018-02-23T07:46:50.262Z,23.10
2018-02-23T07:49:17.801Z,24.53
2018-02-23T07:51:45.403Z,25.37
2018-02-23T07:54:13.720Z,24.23
2018-02-23T07:56:41.260Z,23.90
2018-02-23T07:59:09.611Z,26.20
2018-02-23T08:01:37.174Z,27.40
2018-02-23T08:04:05.213Z,23.23
2018-02-23T08:06:32.794Z,21.67
2018-02-23T08:09:00.358Z,26.70
2018-02-23T08:11:27.951Z,14.63
2018-02-23T08:13:55.513Z,23.20
2018-02-23T08:16:23.097Z,22.90
2018-02-23T08:18:50.649Z,17.87
2018-02-23T08:21:21.224Z,23.23
2018-02-23T08:23:48.783Z,29.30
2018-02-23T08:26:17.152Z,24.70
2018-02-23T08:28:44.725Z,28.00
2018-02-23T08:31:12.781Z,23.17
2018-02-23T08:33:40.533Z,27.23
2018-02-23T08:36:08.090Z,20.80
2018-02-23T08:38:35.676Z,18.90
2018-02-23T08:41:03.245Z,20.10
2018-02-23T08:43:30.824Z,23.67
2018-02-23T08:45:58.374Z,17.97
2018-02-23T08:48:26.726Z,24.87
2018-02-23T08:50:54.281Z,12.83
2018-02-23T08:53:22.145Z,19.33
2018-02-23T08:55:49.691Z,18.83
2018-02-23T08:58:17.235Z,15.80
2018-02-23T09:00:49.972Z,9.40
2018-02-23T09:03:17.532Z,15.57
2018-02-23T09:05:46.178Z,24.33
2018-02-23T09:08:13.730Z,12.37
2018-02-23T09:10:41.309Z,25.20
2018-02-23T09:13:08.848Z,17.30
2018-02-23T09:15:36.398Z,21.73
2018-02-23T09:18:03.976Z,14.40
2018-02-23T09:20:31.528Z,20.53
2018-02-23T09:22:59.119Z,22.30
2018-02-23T09:25:26.870Z,21.70
2018-02-23T09:27:54.509Z,18.10
2018-02-23T09:30:22.055Z,16.23
2018-02-23T09:32:50.052Z,11.33
2018-02-23T09:35:17.611Z,16.30
2018-02-23T09:37:45.152Z,25.90
2018-02-23T09:40:12.804Z,11.97
2018-02-23T09:42:40.354Z,20.40
2018-02-23T09:45:07.917Z,8.37
2018-02-23T09:47:35.466Z,10.30
2018-02-23T09:50:03.272Z,7.37
2018-02-23T09:52:30.822Z,16.50
2018-02-23T09:54:58.401Z,18.20
2018-02-23T09:57:26.709Z,20.60
2018-02-23T09:59:55.398Z,11.77
2018-02-23T10:02:23.710Z,13.17
2018-02-23T10:04:51.245Z,9.83
2018-02-23T10:07:18.880Z,16.87
2018-02-23T10:09:46.449Z,23.10
2018-02-23T10:12:15.100Z,13.03
2018-02-23T10:14:42.711Z,10.73
2018-02-23T10:17:10.240Z,14.23
2018-02-23T10:19:37.853Z,10.87
2018-02-23T10:22:06.184Z,13.37
2018-02-23T10:24:33.765Z,19.00
2018-02-23T10:27:01.305Z,19.90
2018-02-23T10:29:29.962Z,14.50
2018-02-23T10:31:57.505Z,14.50
2018-02-23T10:34:25.046Z,8.83
2018-02-23T10:36:52.724Z,9.77
2018-02-23T10:39:20.282Z,13.80
2018-02-23T10:41:47.876Z,18.87
2018-02-23T10:44:15.428Z,13.83
2018-02-23T10:46:44.645Z,11.73
2018-02-23T10:49:12.960Z,10.60
2018-02-23T10:51:40.556Z,10.70
2018-02-23T10:54:08.119Z,9.23
2018-02-23T10:56:35.724Z,15.37
2018-02-23T10:59:03.289Z,9.70
2018-02-23T11:01:31.184Z,8.60
2018-02-23T11:03:58.739Z,10.30
2018-02-23T11:06:26.309Z,15.60
2018-02-23T11:08:53.923Z,7.40
2018-02-23T11:11:21.460Z,8.87
2018-02-23T11:13:49.041Z,10.70
2018-02-23T11:16:17.278Z,11.47
2018-02-23T11:18:44.851Z,14.23
2018-02-23T11:21:12.568Z,13.63
2018-02-23T11:23:40.117Z,13.03
2018-02-23T11:26:07.694Z,16.03
2018-02-23T11:28:35.234Z,14.87
2018-02-23T11:31:02.832Z,14.03
2018-02-23T11:33:30.388Z,6.50
2018-02-23T11:35:58.449Z,8.57
2018-02-23T11:38:26.158Z,12.40
2018-02-23T11:40:54.490Z,15.33
2018-02-23T11:43:22.070Z,14.40
2018-02-23T11:45:49.760Z,7.23
2018-02-23T11:48:18.161Z,13.47
2018-02-23T11:50:45.721Z,10.40
2018-02-23T11:53:13.380Z,8.30
2018-02-23T11:55:40.932Z,9.87
2018-02-23T11:58:08.536Z,15.30
2018-02-23T12:00:36.104Z,8.03
2018-02-23T12:03:03.959Z,11.77
2018-02-23T12:05:31.509Z,14.80
2018-02-23T12:07:59.157Z,14.50
2018-02-23T12:10:26.739Z,6.47
2018-02-23T12:12:54.313Z,10.67
2018-02-23T12:15:21.889Z,6.60
2018-02-23T12:17:49.542Z,13.90
2018-02-23T12:20:17.949Z,10.77
2018-02-23T12:22:45.712Z,7.23
2018-02-23T12:25:13.579Z,8.60
2018-02-23T12:27:41.889Z,13.37
2018-02-23T12:30:09.450Z,16.57
2018-02-23T12:32:37.019Z,14.17
2018-02-23T12:35:04.570Z,7.27
2018-02-23T12:37:33.664Z,9.80
2018-02-23T12:40:01.225Z,11.87
2018-02-23T12:42:28.808Z,6.07
2018-02-23T12:44:56.354Z,10.17
2018-02-23T12:47:23.927Z,13.47
2018-02-23T12:49:51.481Z,12.33
2018-02-23T12:52:19.305Z,11.87
2018-02-23T12:54:47.608Z,7.27
2018-02-23T12:57:15.152Z,6.00
2018-02-23T12:59:42.857Z,8.40
2018-02-23T13:02:10.372Z,8.53
2018-02-23T13:04:37.942Z,12.97
2018-02-23T13:07:05.493Z,11.53
2018-02-23T13:09:33.140Z,7.67
2018-02-23T13:12:01.427Z,5.47
2018-02-23T13:14:34.548Z,13.67
2018-02-23T13:17:02.296Z,13.43
2018-02-23T13:19:30.528Z,10.10
2018-02-23T13:21:58.253Z,10.00
2018-02-23T13:24:26.061Z,11.70
2018-02-23T13:26:54.766Z,5.97
2018-02-23T13:29:22.334Z,6.50
2018-02-23T13:31:50.222Z,11.37
2018-02-23T13:34:17.874Z,7.40
2018-02-23T13:36:45.512Z,10.17
2018-02-23T13:39:13.056Z,8.30
2018-02-23T13:41:42.327Z,13.17
2018-02-23T13:44:10.018Z,9.60
2018-02-23T13:46:38.322Z,15.90
2018-02-23T13:49:06.128Z,15.93
2018-02-23T13:51:33.688Z,12.47
2018-02-23T13:54:07.048Z,10.90
2018-02-23T13:56:34.594Z,9.10
2018-02-23T13:59:02.170Z,12.70
2018-02-23T14:01:29.702Z,13.27
2018-02-23T14:03:57.282Z,13.07
2018-02-23T14:06:30.651Z,8.00
2018-02-23T14:08:59.277Z,10.07
2018-02-23T14:11:26.854Z,11.47
2018-02-23T14:13:54.452Z,15.33
2018-02-23T14:16:22.021Z,8.17
2018-02-23T14:18:49.573Z,14.55
2018-02-23T14:21:18.002Z,10.07
2018-02-23T14:23:45.553Z,11.23
2018-02-23T14:26:13.541Z,9.67
2018-02-23T14:28:41.109Z,16.40
2018-02-23T14:31:08.644Z,15.57
2018-02-23T14:33:36.233Z,17.93
2018-02-23T14:36:03.810Z,11.80
2018-02-23T14:38:32.458Z,15.50
2018-02-23T14:40:59.995Z,17.00
2018-02-23T14:43:27.583Z,12.40
2018-02-23T14:45:55.181Z,11.80
2018-02-23T14:48:45.338Z,16.47
2018-02-23T14:51:12.990Z,10.80
2018-02-23T14:53:40.530Z,13.00
2018-02-23T14:56:08.130Z,13.53
2018-02-23T14:58:35.694Z,18.57
2018-02-23T15:01:04.061Z,11.80
2018-02-23T15:03:31.626Z,10.90
2018-02-23T15:06:00.281Z,15.10
2018-02-23T15:08:27.828Z,10.20
2018-02-23T15:10:55.388Z,13.97
2018-02-23T15:13:23.051Z,15.77
2018-02-23T15:15:50.596Z,11.03
2018-02-23T15:18:18.176Z,11.30
2018-02-23T15:20:45.741Z,20.00
2018-02-23T15:23:13.341Z,16.73
2018-02-23T15:25:41.678Z,17.80
2018-02-23T15:28:09.663Z,6.43
2018-02-23T15:30:48.877Z,12.27
2018-02-23T15:33:16.751Z,9.23
2018-02-23T15:35:44.349Z,14.73
2018-02-23T15:38:11.906Z,18.63
2018-02-23T15:40:39.481Z,13.33
2018-02-23T15:43:07.973Z,21.40
2018-02-23T15:45:36.353Z,16.70
2018-02-23T15:48:09.567Z,15.07
2018-02-23T15:50:42.805Z,16.27
2018-02-23T15:53:10.435Z,7.47
2018-02-23T15:55:38.045Z,17.50
2018-02-23T15:58:11.223Z,13.60
2018-02-23T16:00:39.598Z,22.60
2018-02-23T16:03:07.154Z,18.17
2018-02-23T16:05:34.742Z,25.80
2018-02-23T16:08:03.073Z,26.57
2018-02-23T16:10:31.072Z,20.83
2018-02-23T16:12:58.609Z,21.67
2018-02-23T16:15:26.217Z,26.80
2018-02-23T16:17:54.016Z,18.47
2018-02-23T16:20:21.574Z,23.30
2018-02-23T16:22:49.398Z,11.63
2018-02-23T16:25:17.720Z,23.27
2018-02-23T16:27:45.273Z,22.23
2018-02-23T16:30:13.673Z,25.00
2018-02-23T16:32:41.273Z,20.13
2018-02-23T16:35:09.700Z,23.03
2018-02-23T16:37:37.238Z,18.40
2018-02-23T16:40:05.004Z,23.57
2018-02-23T16:42:32.605Z,24.80
2018-02-23T16:45:00.592Z,21.90
2018-02-23T16:47:28.946Z,18.20
2018-02-23T16:49:56.548Z,21.57
2018-02-23T16:52:24.904Z,22.60
2018-02-23T16:54:52.532Z,20.23
2018-02-23T16:57:20.295Z,20.03
2018-02-23T16:59:47.874Z,12.80
2018-02-23T17:04:49.342Z,25.37
2018-02-23T17:07:17.296Z,17.33
2018-02-23T17:09:44.851Z,15.37
2018-02-23T17:12:12.414Z,23.40
2018-02-23T17:14:40.039Z,22.47
2018-02-23T17:17:07.619Z,16.60
2018-02-23T17:19:35.221Z,18.80
2018-02-23T17:22:03.559Z,25.03
2018-02-23T17:24:31.115Z,19.47
2018-02-23T17:26:58.922Z,23.50
2018-02-23T17:29:26.504Z,25.73
2018-02-23T17:31:54.857Z,26.90
2018-02-23T17:34:23.922Z,29.30
2018-02-23T17:36:51.564Z,18.30
2018-02-23T17:39:19.113Z,24.63
2018-02-23T17:41:47.042Z,20.20
2018-02-23T17:44:14.671Z,19.70
2018-02-23T17:46:42.213Z,22.40
2018-02-23T17:49:09.808Z,24.70
2018-02-23T17:51:37.366Z,26.03
2018-02-23T17:54:04.993Z,20.57
2018-02-23T17:56:32.598Z,27.20
2018-02-23T17:59:00.521Z,23.67
2018-02-23T18:01:28.061Z,26.17
2018-02-23T18:03:55.848Z,30.40
2018-02-23T18:06:24.336Z,25.73
2018-02-23T18:08:51.930Z,28.00
2018-02-23T18:11:20.288Z,28.60
2018-02-23T18:13:48.040Z,28.10
2018-02-23T18:16:15.931Z,32.17
2018-02-23T18:18:43.501Z,32.03
2018-02-23T18:21:11.079Z,28.20
2018-02-23T18:23:39.466Z,29.10
2018-02-23T18:26:07.021Z,27.90
2018-02-23T18:28:35.420Z,27.93
2018-02-23T18:31:02.974Z,29.57
2018-02-23T18:33:30.572Z,31.73
2018-02-23T18:35:58.404Z,31.33
2018-02-23T18:38:26.306Z,29.77
2018-02-23T18:40:54.080Z,29.03
2018-02-23T18:43:21.634Z,29.03
2018-02-23T18:45:49.240Z,29.27
2018-02-23T18:48:16.818Z,29.50
2018-02-23T18:50:44.839Z,33.90
2018-02-23T18:53:12.401Z,30.17
2018-02-23T18:55:40.208Z,33.47
2018-02-23T18:58:07.797Z,32.23
2018-02-23T19:00:35.343Z,33.87
2018-02-23T19:03:03.064Z,31.87
2018-02-23T19:05:30.646Z,34.17
2018-02-23T19:07:58.242Z,31.10
2018-02-23T19:10:25.840Z,31.13
2018-02-23T19:12:53.450Z,30.33
2018-02-23T19:15:21.026Z,33.53
2018-02-23T19:17:48.888Z,30.63
2018-02-23T19:20:16.433Z,31.77
2018-02-23T19:22:44.028Z,29.80
2018-02-23T19:25:11.640Z,33.73
2018-02-23T19:27:39.209Z,31.40
2018-02-23T19:30:07.015Z,31.40
2018-02-23T19:32:36.077Z,33.23
2018-02-23T19:35:03.922Z,31.40
2018-02-23T19:37:31.578Z,30.83
2018-02-23T19:39:59.936Z,32.03
2018-02-23T19:42:28.483Z,30.97
2018-02-23T19:44:56.100Z,31.57
2018-02-23T19:47:23.656Z,33.93
2018-02-23T19:49:51.984Z,32.17
2018-02-23T19:52:19.570Z,32.20
2018-02-23T19:54:47.129Z,29.50
2018-02-23T19:57:15.001Z,31.70
2018-02-23T19:59:42.558Z,32.37
2018-02-23T20:02:10.134Z,32.53
2018-02-23T20:04:38.490Z,29.50
2018-02-23T20:07:06.248Z,31.10
2018-02-23T20:09:33.824Z,32.23
2018-02-23T20:12:01.386Z,35.10
2018-02-23T20:14:29.112Z,32.73
2018-02-23T20:16:56.742Z,32.07
2018-02-23T20:19:24.857Z,32.40
2018-02-23T20:21:52.398Z,30.00
2018-02-23T20:24:20.003Z,33.60
2018-02-23T20:26:48.395Z,32.57
2018-02-23T20:29:15.980Z,32.87
2018-02-23T20:31:43.597Z,33.53
2018-02-23T20:34:11.934Z,34.17
2018-02-23T20:36:39.555Z,32.63
2018-02-23T20:39:07.871Z,32.00
2018-02-23T20:41:35.489Z,32.10
2018-02-23T20:44:04.566Z,30.33
2018-02-23T20:46:33.242Z,32.40
2018-02-23T20:49:01.597Z,32.07
2018-02-23T20:51:29.214Z,32.00
2018-02-23T20:53:56.842Z,31.17
2018-02-23T20:56:25.031Z,33.77
2018-02-23T20:58:53.040Z,34.23
2018-02-23T21:01:20.588Z,29.33
2018-02-23T21:03:49.012Z,28.97
2018-02-23T21:06:16.613Z,31.27
2018-02-23T21:08:44.949Z,31.23
2018-02-23T21:11:12.704Z,31.43
2018-02-23T21:13:40.318Z,28.80
2018-02-23T21:16:07.909Z,29.60
2018-02-23T21:18:35.453Z,31.67
2018-02-23T21:21:03.352Z,33.47
2018-02-23T21:23:30.979Z,30.30
2018-02-23T21:25:58.551Z,31.53
2018-02-23T21:28:26.153Z,34.67
2018-02-23T21:30:53.732Z,30.67
2018-02-23T21:33:21.312Z,32.00
2018-02-23T21:35:48.864Z,31.23
2018-02-23T21:38:16.576Z,30.87
2018-02-23T21:40:44.157Z,29.40
2018-02-23T21:43:11.738Z,31.90
2018-02-23T21:45:40.073Z,32.90
2018-02-23T21:48:08.049Z,27.47
2018-02-23T21:50:35.582Z,27.83
2018-02-23T21:53:03.147Z,30.37
2018-02-23T21:55:30.738Z,29.53
2018-02-23T21:57:59.046Z,27.40
2018-02-23T22:00:26.988Z,30.20
2018-02-23T22:02:55.337Z,27.70
2018-02-23T22:05:22.879Z,31.83
2018-02-23T22:07:50.465Z,29.10
2018-02-23T22:10:18.012Z,30.90
2018-02-23T22:12:45.706Z,30.17
2018-02-23T22:15:14.017Z,31.07
2018-02-23T22:17:41.609Z,31.03
2018-02-23T22:20:09.177Z,32.80
2018-02-23T22:22:36.837Z,29.27
2018-02-23T22:25:04.448Z,28.10
2018-02-23T22:27:33.117Z,27.70
2018-02-23T22:30:00.828Z,29.63
2018-02-23T22:32:28.431Z,33.70
2018-02-23T22:34:56.013Z,29.17
2018-02-23T22:37:24.324Z,27.73
2018-02-23T22:39:52.173Z,30.10
2018-02-23T22:42:19.745Z,32.10
2018-02-23T22:44:47.647Z,31.10
2018-02-23T22:47:15.279Z,28.77
2018-02-23T22:49:42.853Z,31.53
2018-02-23T22:52:10.470Z,30.07
2018-02-23T22:54:38.777Z,30.60
2018-02-23T22:57:06.462Z,31.97
2018-02-23T22:59:34.024Z,28.40
2018-02-23T23:02:01.619Z,31.80
2018-02-23T23:04:29.179Z,29.90
2018-02-23T23:06:58.000Z,30.67
2018-02-23T23:09:25.565Z,32.57
2018-02-23T23:11:53.237Z,33.47
2018-02-23T23:14:20.832Z,32.10
2018-02-23T23:16:49.230Z,30.97
2018-02-23T23:19:16.806Z,30.60
2018-02-23T23:21:44.586Z,29.80
2018-02-23T23:24:12.165Z,30.87
2018-02-23T23:26:39.709Z,31.57
2018-02-23T23:29:07.467Z,30.37
2018-02-23T23:31:35.015Z,31.10
2018-02-23T23:34:02.917Z,30.20
2018-02-23T23:36:30.478Z,29.63
2018-02-23T23:38:58.017Z,32.03
2018-02-23T23:41:25.761Z,34.07
2018-02-23T23:43:53.300Z,33.00
2018-02-23T23:46:20.913Z,33.03
2018-02-23T23:48:48.454Z,32.80
2018-02-23T23:51:16.042Z,31.07
2018-02-23T23:53:43.589Z,32.77
2018-02-23T23:56:11.483Z,30.60
2018-02-23T23:58:39.052Z,30.80
